Time,TemperatureF,DewpointF,PressureIn,WindDirection,WindDirectionDegrees,WindSpeedMPH,WindSpeedGustMPH,Humidity,HourlyPrecipIn,Conditions,Clouds,dailyrainin,SoftwareType,DateUTC
2017-04-25 00:02:00,59.8,54.3,29.81,East,79,3.0,5.0,82,0.00,,,0.00,Wunderground v.1.15,2017-04-25 04:02:00,
2017-04-25 00:08:00,59.6,54.1,29.81,East,101,5.0,7.0,82,0.00,,,0.00,Wunderground v.1.15,2017-04-25 04:08:00,
2017-04-25 00:13:00,59.5,54.3,29.81,East,88,3.0,3.0,83,0.00,,,0.00,Wunderground v.1.15,2017-04-25 04:13:00,
2017-04-25 00:19:00,59.2,54.0,29.81,ENE,70,2.0,3.0,83,0.00,,,0.00,Wunderground v.1.15,2017-04-25 04:19:00,
2017-04-25 00:24:00,59.0,54.2,29.81,East,100,3.0,3.0,84,0.00,,,0.00,Wunderground v.1.15,2017-04-25 04:24:00,
2017-04-25 00:30:00,58.9,54.1,29.81,NE,44,3.0,3.0,84,0.00,,,0.00,Wunderground v.1.15,2017-04-25 04:30:00,
2017-04-25 00:35:00,58.8,54.0,29.81,East,86,2.0,4.0,84,0.00,,,0.00,Wunderground v.1.15,2017-04-25 04:35:00,
2017-04-25 00:40:00,58.7,53.9,29.81,East,91,2.0,3.0,84,0.00,,,0.00,Wunderground v.1.15,2017-04-25 04:40:00,
2017-04-25 00:45:00,58.6,53.8,29.81,ENE,75,0.0,4.0,84,0.00,,,0.00,Wunderground v.1.15,2017-04-25 04:45:00,
2017-04-25 00:51:00,58.4,53.6,29.81,ENE,77,1.0,2.0,84,0.00,,,0.00,Wunderground v.1.15,2017-04-25 04:51:00,
2017-04-25 00:56:00,58.2,53.4,29.81,ENE,57,1.0,3.0,84,0.00,,,0.00,Wunderground v.1.15,2017-04-25 04:56:00,
2017-04-25 01:01:00,58.1,53.6,29.81,ESE,102,2.0,3.0,85,0.00,,,0.00,Wunderground v.1.15,2017-04-25 05:01:00,
2017-04-25 01:07:00,57.8,53.3,29.81,ENE,77,1.0,3.0,85,0.00,,,0.00,Wunderground v.1.15,2017-04-25 05:07:00,
2017-04-25 01:13:00,57.7,53.2,29.81,NE,41,2.0,2.0,85,0.00,,,0.00,Wunderground v.1.15,2017-04-25 05:13:00,
2017-04-25 01:19:00,57.6,53.4,29.81,ENE,69,2.0,3.0,86,0.00,,,0.00,Wunderground v.1.15,2017-04-25 05:19:00,
2017-04-25 01:25:00,57.4,53.2,29.81,ENE,63,2.0,3.0,86,0.00,,,0.00,Wunderground v.1.15,2017-04-25 05:25:00,
2017-04-25 01:30:00,57.3,53.1,29.81,East,98,1.0,2.0,86,0.00,,,0.00,Wunderground v.1.15,2017-04-25 05:30:00,
2017-04-25 01:35:00,57.2,53.0,29.81,East,96,3.0,4.0,86,0.00,,,0.00,Wunderground v.1.15,2017-04-25 05:35:00,
2017-04-25 01:41:00,57.0,52.9,29.81,East,83,1.0,1.0,86,0.00,,,0.00,Wunderground v.1.15,2017-04-25 05:41:00,
2017-04-25 01:46:00,56.9,53.1,29.81,ENE,67,2.0,3.0,87,0.00,,,0.00,Wunderground v.1.15,2017-04-25 05:46:00,
2017-04-25 01:51:00,56.7,53.5,29.81,East,93,0.0,4.0,89,0.00,,,0.00,Wunderground v.1.15,2017-04-25 05:51:00,
2017-04-25 01:57:00,56.6,52.8,29.81,East,96,6.0,6.0,87,0.00,,,0.00,Wunderground v.1.15,2017-04-25 05:57:00,
2017-04-25 02:02:00,56.4,52.6,29.80,ESE,116,1.0,3.0,87,0.00,,,0.00,Wunderground v.1.15,2017-04-25 06:02:00,
2017-04-25 02:07:00,56.3,52.5,29.80,East,84,0.0,3.0,87,0.00,,,0.00,Wunderground v.1.15,2017-04-25 06:07:00,
2017-04-25 02:12:00,56.2,52.7,29.80,East,84,1.0,1.0,88,0.00,,,0.00,Wunderground v.1.15,2017-04-25 06:12:00,
2017-04-25 02:17:00,56.1,52.3,29.80,East,84,0.0,1.0,87,0.00,,,0.00,Wunderground v.1.15,2017-04-25 06:17:00,
2017-04-25 02:22:00,55.9,52.4,29.81,East,84,0.0,0.0,88,0.00,,,0.00,Wunderground v.1.15,2017-04-25 06:22:00,
2017-04-25 02:27:00,55.7,52.2,29.80,East,84,0.0,0.0,88,0.00,,,0.00,Wunderground v.1.15,2017-04-25 06:27:00,
2017-04-25 02:32:00,55.4,51.9,29.80,East,84,0.0,0.0,88,0.00,,,0.00,Wunderground v.1.15,2017-04-25 06:32:00,
2017-04-25 02:37:00,55.2,52.0,29.80,East,84,1.0,2.0,89,0.00,,,0.00,Wunderground v.1.15,2017-04-25 06:37:00,
2017-04-25 02:42:00,55.0,51.8,29.80,East,84,0.0,1.0,89,0.00,,,0.00,Wunderground v.1.15,2017-04-25 06:42:00,
2017-04-25 02:47:00,54.9,51.7,29.80,East,84,0.0,1.0,89,0.00,,,0.00,Wunderground v.1.15,2017-04-25 06:47:00,
2017-04-25 02:52:00,54.8,51.9,29.80,East,84,0.0,0.0,90,0.00,,,0.00,Wunderground v.1.15,2017-04-25 06:52:00,
2017-04-25 02:57:00,54.6,51.7,29.79,East,84,2.0,2.0,90,0.00,,,0.00,Wunderground v.1.15,2017-04-25 06:57:00,
2017-04-25 03:02:00,54.5,51.6,29.79,ESE,119,0.0,3.0,90,0.00,,,0.00,Wunderground v.1.15,2017-04-25 07:02:00,
2017-04-25 03:07:00,54.5,51.6,29.79,East,89,1.0,3.0,90,0.00,,,0.00,Wunderground v.1.15,2017-04-25 07:07:00,
2017-04-25 03:12:00,54.5,51.6,29.79,East,80,0.0,1.0,90,0.00,,,0.00,Wunderground v.1.15,2017-04-25 07:12:00,
2017-04-25 03:17:00,54.4,51.5,29.79,East,80,0.0,1.0,90,0.00,,,0.00,Wunderground v.1.15,2017-04-25 07:17:00,
2017-04-25 03:22:00,54.1,51.2,29.78,East,80,0.0,0.0,90,0.00,,,0.00,Wunderground v.1.15,2017-04-25 07:22:00,
2017-04-25 03:27:00,53.8,51.2,29.78,East,80,0.0,0.0,91,0.00,,,0.00,Wunderground v.1.15,2017-04-25 07:27:00,
2017-04-25 03:32:00,53.6,51.0,29.78,East,80,0.0,0.0,91,0.00,,,0.00,Wunderground v.1.15,2017-04-25 07:32:00,
2017-04-25 03:33:00,53.6,51.0,29.78,East,80,0.0,0.0,91,0.00,,,0.00,Wunderground v.1.15,2017-04-25 07:33:00,
2017-04-25 03:38:00,53.5,50.9,29.78,East,80,0.0,0.0,91,0.00,,,0.00,Wunderground v.1.15,2017-04-25 07:38:00,
2017-04-25 03:43:00,53.4,50.8,29.78,East,80,0.0,0.0,91,0.00,,,0.00,Wunderground v.1.15,2017-04-25 07:43:00,
2017-04-25 03:48:00,53.3,50.7,29.78,East,80,0.0,0.0,91,0.00,,,0.00,Wunderground v.1.15,2017-04-25 07:48:00,
2017-04-25 03:54:00,53.1,50.8,29.79,East,80,0.0,0.0,92,0.00,,,0.00,Wunderground v.1.15,2017-04-25 07:54:00,
2017-04-25 03:59:00,53.1,50.8,29.79,East,80,0.0,0.0,92,0.00,,,0.00,Wunderground v.1.15,2017-04-25 07:59:00,
2017-04-25 04:04:00,52.8,50.5,29.79,East,80,0.0,0.0,92,0.00,,,0.00,Wunderground v.1.15,2017-04-25 08:04:00,
2017-04-25 04:09:00,52.5,50.2,29.78,East,80,0.0,0.0,92,0.00,,,0.00,Wunderground v.1.15,2017-04-25 08:09:00,
2017-04-25 04:14:00,52.4,50.1,29.79,East,80,0.0,0.0,92,0.00,,,0.00,Wunderground v.1.15,2017-04-25 08:14:00,
2017-04-25 04:19:00,52.2,49.9,29.79,East,80,0.0,0.0,92,0.00,,,0.00,Wunderground v.1.15,2017-04-25 08:19:00,
2017-04-25 04:24:00,52.1,49.8,29.79,East,80,0.0,0.0,92,0.00,,,0.00,Wunderground v.1.15,2017-04-25 08:24:00,
2017-04-25 04:29:00,52.1,50.1,29.78,East,80,0.0,0.0,93,0.00,,,0.00,Wunderground v.1.15,2017-04-25 08:29:00,
2017-04-25 04:34:00,51.9,49.9,29.78,East,80,0.0,0.0,93,0.00,,,0.00,Wunderground v.1.15,2017-04-25 08:34:00,
2017-04-25 04:39:00,51.8,49.8,29.79,East,80,0.0,0.0,93,0.00,,,0.00,Wunderground v.1.15,2017-04-25 08:39:00,
2017-04-25 04:44:00,51.7,49.7,29.79,East,80,0.0,0.0,93,0.00,,,0.00,Wunderground v.1.15,2017-04-25 08:44:00,
2017-04-25 04:49:00,51.5,49.5,29.79,East,80,0.0,0.0,93,0.00,,,0.00,Wunderground v.1.15,2017-04-25 08:49:00,
2017-04-25 04:54:00,51.4,49.4,29.79,East,80,0.0,0.0,93,0.00,,,0.00,Wunderground v.1.15,2017-04-25 08:54:00,
2017-04-25 04:59:00,51.4,49.4,29.79,East,80,0.0,0.0,93,0.00,,,0.00,Wunderground v.1.15,2017-04-25 08:59:00,
2017-04-25 05:04:00,51.3,49.3,29.79,East,80,0.0,0.0,93,0.00,,,0.00,Wunderground v.1.15,2017-04-25 09:04:00,
2017-04-25 05:09:00,51.2,49.2,29.79,East,80,0.0,0.0,93,0.00,,,0.00,Wunderground v.1.15,2017-04-25 09:09:00,
2017-04-25 05:14:00,51.3,49.6,29.79,East,80,0.0,0.0,94,0.00,,,0.00,Wunderground v.1.15,2017-04-25 09:14:00,
2017-04-25 05:19:00,51.4,49.7,29.79,East,80,0.0,0.0,94,0.00,,,0.00,Wunderground v.1.15,2017-04-25 09:19:00,
2017-04-25 05:24:00,51.6,49.9,29.79,East,89,1.0,3.0,94,0.00,,,0.00,Wunderground v.1.15,2017-04-25 09:24:00,
2017-04-25 05:29:00,51.8,50.1,29.78,East,89,0.0,3.0,94,0.00,,,0.00,Wunderground v.1.15,2017-04-25 09:29:00,
2017-04-25 05:34:00,51.5,49.8,29.79,East,89,0.0,2.0,94,0.00,,,0.00,Wunderground v.1.15,2017-04-25 09:34:00,
2017-04-25 05:39:00,51.2,49.5,29.79,East,89,1.0,2.0,94,0.00,,,0.00,Wunderground v.1.15,2017-04-25 09:39:00,
2017-04-25 05:44:00,51.1,49.4,29.79,East,89,0.0,1.0,94,0.00,,,0.00,Wunderground v.1.15,2017-04-25 09:44:00,
2017-04-25 05:49:00,51.2,49.5,29.79,East,89,0.0,1.0,94,0.00,,,0.00,Wunderground v.1.15,2017-04-25 09:49:00,
2017-04-25 05:54:00,51.0,49.3,29.79,East,89,1.0,1.0,94,0.00,,,0.00,Wunderground v.1.15,2017-04-25 09:54:00,
2017-04-25 05:59:00,50.9,49.2,29.80,East,89,0.0,1.0,94,0.00,,,0.00,Wunderground v.1.15,2017-04-25 09:59:00,
2017-04-25 06:04:00,50.8,49.1,29.80,East,89,0.0,0.0,94,0.00,,,0.00,Wunderground v.1.15,2017-04-25 10:04:00,
2017-04-25 06:09:00,50.7,49.0,29.80,East,89,0.0,1.0,94,0.00,,,0.00,Wunderground v.1.15,2017-04-25 10:09:00,
2017-04-25 06:14:00,50.6,48.9,29.80,East,89,0.0,0.0,94,0.00,,,0.00,Wunderground v.1.15,2017-04-25 10:14:00,
2017-04-25 06:19:00,50.6,48.9,29.80,East,89,0.0,1.0,94,0.00,,,0.00,Wunderground v.1.15,2017-04-25 10:19:00,
2017-04-25 06:24:00,50.7,49.0,29.80,East,89,0.0,1.0,94,0.00,,,0.00,Wunderground v.1.15,2017-04-25 10:24:00,
2017-04-25 06:30:00,50.8,49.1,29.80,East,89,0.0,0.0,94,0.00,,,0.00,Wunderground v.1.15,2017-04-25 10:30:00,
2017-04-25 06:35:00,50.8,49.1,29.80,East,89,0.0,0.0,94,0.00,,,0.00,Wunderground v.1.15,2017-04-25 10:35:00,
2017-04-25 06:40:00,50.7,49.0,29.80,East,89,0.0,0.0,94,0.00,,,0.00,Wunderground v.1.15,2017-04-25 10:40:00,
2017-04-25 06:45:00,50.4,48.7,29.80,East,89,0.0,0.0,94,0.00,,,0.00,Wunderground v.1.15,2017-04-25 10:45:00,
2017-04-25 06:50:00,50.1,48.4,29.80,East,89,0.0,0.0,94,0.00,,,0.00,Wunderground v.1.15,2017-04-25 10:50:00,
2017-04-25 06:55:00,50.0,48.3,29.81,East,89,0.0,0.0,94,0.00,,,0.00,Wunderground v.1.15,2017-04-25 10:55:00,
2017-04-25 07:00:00,49.9,48.2,29.81,East,89,0.0,0.0,94,0.00,,,0.00,Wunderground v.1.15,2017-04-25 11:00:00,
2017-04-25 07:05:00,50.0,48.3,29.81,East,89,0.0,0.0,94,0.00,,,0.00,Wunderground v.1.15,2017-04-25 11:05:00,
2017-04-25 07:10:00,50.2,48.5,29.80,East,89,0.0,1.0,94,0.00,,,0.00,Wunderground v.1.15,2017-04-25 11:10:00,
2017-04-25 07:15:00,50.3,48.9,29.80,East,89,0.0,1.0,95,0.00,,,0.00,Wunderground v.1.15,2017-04-25 11:15:00,
2017-04-25 07:20:00,50.6,49.2,29.80,East,89,0.0,1.0,95,0.00,,,0.00,Wunderground v.1.15,2017-04-25 11:20:00,
2017-04-25 07:25:00,51.0,49.6,29.80,East,89,1.0,2.0,95,0.00,,,0.00,Wunderground v.1.15,2017-04-25 11:25:00,
2017-04-25 07:30:00,51.5,50.1,29.80,ENE,71,1.0,3.0,95,0.00,,,0.00,Wunderground v.1.15,2017-04-25 11:30:00,
2017-04-25 07:35:00,51.9,50.5,29.80,NE,53,0.0,3.0,95,0.00,,,0.00,Wunderground v.1.15,2017-04-25 11:35:00,
2017-04-25 07:40:00,52.4,51.0,29.80,ENE,60,1.0,2.0,95,0.00,,,0.00,Wunderground v.1.15,2017-04-25 11:40:00,
2017-04-25 07:45:00,52.6,51.2,29.81,NE,46,0.0,2.0,95,0.00,,,0.00,Wunderground v.1.15,2017-04-25 11:45:00,
2017-04-25 07:50:00,52.5,50.8,29.81,NE,46,0.0,0.0,94,0.00,,,0.00,Wunderground v.1.15,2017-04-25 11:50:00,
2017-04-25 07:55:00,52.8,51.1,29.81,NW,309,0.0,2.0,94,0.00,,,0.00,Wunderground v.1.15,2017-04-25 11:55:00,
2017-04-25 08:00:00,53.1,51.4,29.81,WNW,301,1.0,2.0,94,0.00,,,0.00,Wunderground v.1.15,2017-04-25 12:00:00,
2017-04-25 08:05:00,53.7,52.0,29.81,WNW,301,0.0,2.0,94,0.00,,,0.00,Wunderground v.1.15,2017-04-25 12:05:00,
2017-04-25 08:10:00,54.3,52.6,29.81,North,5,1.0,2.0,94,0.00,,,0.00,Wunderground v.1.15,2017-04-25 12:10:00,
2017-04-25 08:15:00,54.8,52.8,29.81,North,5,0.0,2.0,93,0.00,,,0.00,Wunderground v.1.15,2017-04-25 12:15:00,
2017-04-25 08:20:00,55.6,53.6,29.81,North,5,0.0,0.0,93,0.00,,,0.00,Wunderground v.1.15,2017-04-25 12:20:00,
2017-04-25 08:25:00,56.3,54.0,29.81,North,5,2.0,2.0,92,0.00,,,0.00,Wunderground v.1.15,2017-04-25 12:25:00,
2017-04-25 08:30:00,57.0,54.1,29.81,NE,40,2.0,3.0,90,0.00,,,0.00,Wunderground v.1.15,2017-04-25 12:30:00,
2017-04-25 08:36:00,57.4,53.2,29.81,ENE,59,2.0,5.0,86,0.00,,,0.00,Wunderground v.1.15,2017-04-25 12:36:00,
2017-04-25 08:41:00,57.7,53.2,29.81,ENE,62,2.0,6.0,85,0.00,,,0.00,Wunderground v.1.15,2017-04-25 12:41:00,
2017-04-25 08:46:00,58.0,53.2,29.81,East,94,1.0,6.0,84,0.00,,,0.00,Wunderground v.1.15,2017-04-25 12:46:00,
2017-04-25 08:51:00,58.4,53.3,29.81,North,10,3.0,5.0,83,0.00,,,0.00,Wunderground v.1.15,2017-04-25 12:51:00,
2017-04-25 08:56:00,58.6,53.1,29.81,ENE,74,2.0,7.0,82,0.00,,,0.00,Wunderground v.1.15,2017-04-25 12:56:00,
2017-04-25 09:01:00,58.9,53.4,29.81,East,83,2.0,6.0,82,0.00,,,0.00,Wunderground v.1.15,2017-04-25 13:01:00,
2017-04-25 09:06:00,59.3,53.5,29.81,ENE,67,2.0,6.0,81,0.00,,,0.00,Wunderground v.1.15,2017-04-25 13:06:00,
2017-04-25 09:11:00,59.9,53.7,29.81,ESE,116,1.0,3.0,80,0.00,,,0.00,Wunderground v.1.15,2017-04-25 13:11:00,
2017-04-25 09:16:00,60.0,53.5,29.81,ENE,58,2.0,7.0,79,0.00,,,0.00,Wunderground v.1.15,2017-04-25 13:16:00,
2017-04-25 09:21:00,60.2,53.7,29.81,East,88,7.0,10.0,79,0.00,,,0.00,Wunderground v.1.15,2017-04-25 13:21:00,
2017-04-25 09:26:00,60.0,53.8,29.80,East,82,2.0,10.0,80,0.00,,,0.00,Wunderground v.1.15,2017-04-25 13:26:00,
2017-04-25 09:31:00,60.3,53.8,29.80,East,96,1.0,7.0,79,0.00,,,0.00,Wunderground v.1.15,2017-04-25 13:31:00,
2017-04-25 09:36:00,60.7,54.1,29.80,NE,46,2.0,7.0,79,0.00,,,0.00,Wunderground v.1.15,2017-04-25 13:36:00,
2017-04-25 09:41:00,61.1,54.2,29.80,ENE,71,4.0,8.0,78,0.00,,,0.00,Wunderground v.1.15,2017-04-25 13:41:00,
2017-04-25 09:46:00,61.4,54.5,29.81,East,94,2.0,8.0,78,0.00,,,0.00,Wunderground v.1.15,2017-04-25 13:46:00,
2017-04-25 09:51:00,62.2,55.3,29.81,East,84,1.0,6.0,78,0.00,,,0.00,Wunderground v.1.15,2017-04-25 13:51:00,
2017-04-25 09:56:00,62.8,55.1,29.81,ESE,105,1.0,6.0,76,0.00,,,0.00,Wunderground v.1.15,2017-04-25 13:56:00,
2017-04-25 10:01:00,63.4,55.3,29.81,NE,44,2.0,3.0,75,0.00,,,0.00,Wunderground v.1.15,2017-04-25 14:01:00,
2017-04-25 10:06:00,63.6,55.2,29.81,ESE,109,1.0,7.0,74,0.00,,,0.00,Wunderground v.1.15,2017-04-25 14:06:00,
2017-04-25 10:11:00,64.0,55.2,29.81,South,178,2.0,3.0,73,0.00,,,0.00,Wunderground v.1.15,2017-04-25 14:11:00,
2017-04-25 10:16:00,63.8,55.0,29.81,South,178,1.0,3.0,73,0.00,,,0.00,Wunderground v.1.15,2017-04-25 14:16:00,
2017-04-25 10:21:00,64.3,55.5,29.80,South,170,1.0,3.0,73,0.00,,,0.00,Wunderground v.1.15,2017-04-25 14:21:00,
2017-04-25 10:26:00,64.7,56.2,29.80,NE,55,2.0,5.0,74,0.00,,,0.00,Wunderground v.1.15,2017-04-25 14:26:00,
2017-04-25 10:31:00,65.0,55.8,29.80,ENE,70,1.0,5.0,72,0.00,,,0.00,Wunderground v.1.15,2017-04-25 14:31:00,
2017-04-25 10:36:00,65.2,56.3,29.80,South,184,2.0,5.0,73,0.00,,,0.00,Wunderground v.1.15,2017-04-25 14:36:00,
2017-04-25 10:41:00,65.7,56.8,29.80,East,98,3.0,4.0,73,0.00,,,0.00,Wunderground v.1.15,2017-04-25 14:41:00,
2017-04-25 10:46:00,66.4,56.3,29.80,ESE,103,5.0,6.0,70,0.00,,,0.00,Wunderground v.1.15,2017-04-25 14:46:00,
2017-04-25 10:51:00,66.2,56.5,29.80,ENE,67,2.0,5.0,71,0.00,,,0.00,Wunderground v.1.15,2017-04-25 14:51:00,
2017-04-25 10:56:00,66.7,56.6,29.80,SSE,164,3.0,7.0,70,0.00,,,0.00,Wunderground v.1.15,2017-04-25 14:56:00,
2017-04-25 11:01:00,67.0,56.5,29.80,ESE,111,2.0,6.0,69,0.00,,,0.00,Wunderground v.1.15,2017-04-25 15:01:00,
2017-04-25 11:06:00,67.4,56.9,29.80,ENE,70,2.0,6.0,69,0.00,,,0.00,Wunderground v.1.15,2017-04-25 15:06:00,
2017-04-25 11:11:00,67.7,57.2,29.80,East,82,6.0,9.0,69,0.00,,,0.00,Wunderground v.1.15,2017-04-25 15:11:00,
2017-04-25 11:16:00,67.5,57.0,29.79,ESE,122,3.0,9.0,69,0.00,,,0.00,Wunderground v.1.15,2017-04-25 15:16:00,
2017-04-25 11:21:00,67.7,56.8,29.79,East,87,6.0,7.0,68,0.00,,,0.00,Wunderground v.1.15,2017-04-25 15:21:00,
2017-04-25 11:26:00,67.8,56.4,29.79,SSE,149,3.0,9.0,67,0.00,,,0.00,Wunderground v.1.15,2017-04-25 15:26:00,
2017-04-25 11:31:00,67.5,56.6,29.79,East,86,2.0,6.0,68,0.00,,,0.00,Wunderground v.1.15,2017-04-25 15:31:00,
2017-04-25 11:36:00,67.6,56.7,29.79,East,80,3.0,11.0,68,0.00,,,0.00,Wunderground v.1.15,2017-04-25 15:36:00,
2017-04-25 11:41:00,68.0,57.4,29.79,South,175,0.0,5.0,69,0.00,,,0.00,Wunderground v.1.15,2017-04-25 15:41:00,
2017-04-25 11:46:00,68.2,57.2,29.78,East,91,5.0,13.0,68,0.00,,,0.00,Wunderground v.1.15,2017-04-25 15:46:00,
2017-04-25 11:51:00,68.4,57.4,29.78,ESE,119,1.0,9.0,68,0.00,,,0.00,Wunderground v.1.15,2017-04-25 15:51:00,
2017-04-25 11:56:00,68.6,57.6,29.78,SSE,150,0.0,9.0,68,0.00,,,0.00,Wunderground v.1.15,2017-04-25 15:56:00,
2017-04-25 12:01:00,69.5,58.1,29.78,ESE,107,2.0,7.0,67,0.00,,,0.00,Wunderground v.1.15,2017-04-25 16:01:00,
2017-04-25 12:07:00,69.5,57.6,29.78,ENE,73,2.0,9.0,66,0.00,,,0.00,Wunderground v.1.15,2017-04-25 16:07:00,
2017-04-25 12:12:00,70.1,58.2,29.77,SE,132,1.0,6.0,66,0.00,,,0.00,Wunderground v.1.15,2017-04-25 16:12:00,
2017-04-25 12:16:00,70.7,58.4,29.77,ESE,114,1.0,6.0,65,0.00,,,0.00,Wunderground v.1.15,2017-04-25 16:16:00,
2017-04-25 12:22:00,70.2,58.3,29.77,SSE,153,2.0,4.0,66,0.00,,,0.00,Wunderground v.1.15,2017-04-25 16:22:00,
2017-04-25 12:27:00,70.7,59.2,29.77,SSE,161,1.0,6.0,67,0.00,,,0.00,Wunderground v.1.15,2017-04-25 16:27:00,
2017-04-25 12:32:00,71.2,58.4,29.76,WSW,246,1.0,3.0,64,0.00,,,0.00,Wunderground v.1.15,2017-04-25 16:32:00,
2017-04-25 12:37:00,71.5,58.7,29.76,SE,128,2.0,6.0,64,0.00,,,0.00,Wunderground v.1.15,2017-04-25 16:37:00,
2017-04-25 12:42:00,71.3,58.5,29.75,SSW,212,4.0,9.0,64,0.00,,,0.00,Wunderground v.1.15,2017-04-25 16:42:00,
2017-04-25 12:47:00,70.9,59.0,29.76,East,92,3.0,9.0,66,0.00,,,0.00,Wunderground v.1.15,2017-04-25 16:47:00,
2017-04-25 12:52:00,71.0,57.8,29.75,East,91,7.0,11.0,63,0.00,,,0.00,Wunderground v.1.15,2017-04-25 16:52:00,
2017-04-25 12:57:00,71.2,58.8,29.75,SSE,163,2.0,11.0,65,0.00,,,0.00,Wunderground v.1.15,2017-04-25 16:57:00,
2017-04-25 13:02:00,71.3,58.5,29.75,NE,56,1.0,8.0,64,0.00,,,0.00,Wunderground v.1.15,2017-04-25 17:02:00,
2017-04-25 13:07:00,71.8,59.8,29.75,East,80,1.0,8.0,66,0.00,,,0.00,Wunderground v.1.15,2017-04-25 17:07:00,
2017-04-25 13:12:00,72.4,59.1,29.75,ESE,122,4.0,7.0,63,0.00,,,0.00,Wunderground v.1.15,2017-04-25 17:12:00,
2017-04-25 13:17:00,72.9,59.1,29.74,SE,138,1.0,7.0,62,0.00,,,0.00,Wunderground v.1.15,2017-04-25 17:17:00,
2017-04-25 13:22:00,73.2,59.8,29.74,South,183,5.0,5.0,63,0.00,,,0.00,Wunderground v.1.15,2017-04-25 17:22:00,
2017-04-25 13:27:00,73.1,58.8,29.74,ENE,63,0.0,5.0,61,0.00,,,0.00,Wunderground v.1.15,2017-04-25 17:27:00,
2017-04-25 13:32:00,73.0,58.8,29.74,ESE,104,4.0,9.0,61,0.00,,,0.00,Wunderground v.1.15,2017-04-25 17:32:00,
2017-04-25 13:37:00,73.1,59.3,29.74,East,95,2.0,9.0,62,0.00,,,0.00,Wunderground v.1.15,2017-04-25 17:37:00,
2017-04-25 13:42:00,72.8,59.0,29.74,ENE,58,2.0,8.0,62,0.00,,,0.00,Wunderground v.1.15,2017-04-25 17:42:00,
2017-04-25 13:47:00,72.9,59.1,29.74,NNE,22,1.0,8.0,62,0.00,,,0.00,Wunderground v.1.15,2017-04-25 17:47:00,
2017-04-25 13:52:00,73.0,60.1,29.73,SSE,163,2.0,7.0,64,0.00,,,0.00,Wunderground v.1.15,2017-04-25 17:52:00,
2017-04-25 13:58:00,73.4,59.6,29.73,South,190,2.0,7.0,62,0.00,,,0.00,Wunderground v.1.15,2017-04-25 17:58:00,
2017-04-25 14:03:00,74.2,60.3,29.73,SE,139,4.0,7.0,62,0.00,,,0.00,Wunderground v.1.15,2017-04-25 18:03:00,
2017-04-25 14:08:00,75.4,60.5,29.73,East,83,2.0,7.0,60,0.00,,,0.00,Wunderground v.1.15,2017-04-25 18:08:00,
2017-04-25 14:13:00,75.5,59.7,29.73,SSE,162,3.0,4.0,58,0.00,,,0.00,Wunderground v.1.15,2017-04-25 18:13:00,
2017-04-25 14:18:00,74.6,59.3,29.72,SSE,161,2.0,9.0,59,0.00,,,0.00,Wunderground v.1.15,2017-04-25 18:18:00,
2017-04-25 14:23:00,73.7,58.9,29.72,South,188,4.0,8.0,60,0.00,,,0.00,Wunderground v.1.15,2017-04-25 18:23:00,
2017-04-25 14:28:00,73.3,59.9,29.72,SE,132,3.0,8.0,63,0.00,,,0.00,Wunderground v.1.15,2017-04-25 18:28:00,
2017-04-25 14:33:00,73.9,60.1,29.72,West,275,0.0,5.0,62,0.00,,,0.00,Wunderground v.1.15,2017-04-25 18:33:00,
2017-04-25 14:38:00,74.3,60.0,29.72,SE,139,2.0,7.0,61,0.00,,,0.00,Wunderground v.1.15,2017-04-25 18:38:00,
2017-04-25 14:44:00,74.9,61.5,29.72,SE,134,2.0,6.0,63,0.00,,,0.00,Wunderground v.1.15,2017-04-25 18:44:00,
2017-04-25 14:49:00,74.6,59.8,29.71,SSW,194,3.0,7.0,60,0.00,,,0.00,Wunderground v.1.15,2017-04-25 18:49:00,
2017-04-25 14:54:00,74.8,61.4,29.72,SSE,165,2.0,4.0,63,0.00,,,0.00,Wunderground v.1.15,2017-04-25 18:54:00,
2017-04-25 14:59:00,75.1,60.7,29.72,SSE,150,2.0,4.0,61,0.00,,,0.00,Wunderground v.1.15,2017-04-25 18:59:00,
2017-04-25 15:04:00,75.4,60.1,29.71,ESE,103,1.0,4.0,59,0.00,,,0.00,Wunderground v.1.15,2017-04-25 19:04:00,
2017-04-25 15:09:00,76.1,60.7,29.71,SE,130,2.0,6.0,59,0.00,,,0.00,Wunderground v.1.15,2017-04-25 19:09:00,
2017-04-25 15:14:00,76.7,60.8,29.71,SW,225,3.0,7.0,58,0.00,,,0.00,Wunderground v.1.15,2017-04-25 19:14:00,
2017-04-25 15:19:00,76.7,61.3,29.71,WSW,257,2.0,7.0,59,0.00,,,0.00,Wunderground v.1.15,2017-04-25 19:19:00,
2017-04-25 15:24:00,76.1,61.2,29.71,ESE,105,5.0,8.0,60,0.00,,,0.00,Wunderground v.1.15,2017-04-25 19:24:00,
2017-04-25 15:29:00,76.5,60.1,29.71,SSW,204,0.0,8.0,57,0.00,,,0.00,Wunderground v.1.15,2017-04-25 19:29:00,
2017-04-25 15:34:00,76.8,60.4,29.70,South,186,1.0,6.0,57,0.00,,,0.00,Wunderground v.1.15,2017-04-25 19:34:00,
2017-04-25 15:39:00,77.0,60.1,29.70,WNW,296,1.0,6.0,56,0.00,,,0.00,Wunderground v.1.15,2017-04-25 19:39:00,
2017-04-25 15:44:00,76.7,60.8,29.70,SSE,168,3.0,4.0,58,0.00,,,0.00,Wunderground v.1.15,2017-04-25 19:44:00,
2017-04-25 15:49:00,77.0,60.6,29.69,SSW,192,1.0,5.0,57,0.00,,,0.00,Wunderground v.1.15,2017-04-25 19:49:00,
2017-04-25 15:54:00,76.9,60.0,29.69,West,259,4.0,4.0,56,0.00,,,0.00,Wunderground v.1.15,2017-04-25 19:54:00,
2017-04-25 15:59:00,77.4,61.0,29.69,NNE,24,2.0,5.0,57,0.00,,,0.00,Wunderground v.1.15,2017-04-25 19:59:00,
2017-04-25 16:04:00,78.2,61.2,29.69,South,172,2.0,4.0,56,0.00,,,0.00,Wunderground v.1.15,2017-04-25 20:04:00,
2017-04-25 16:10:00,77.8,60.8,29.69,South,190,2.0,3.0,56,0.00,,,0.00,Wunderground v.1.15,2017-04-25 20:10:00,
2017-04-25 16:15:00,77.3,59.9,29.69,WSW,255,1.0,7.0,55,0.00,,,0.00,Wunderground v.1.15,2017-04-25 20:15:00,
2017-04-25 16:20:00,76.5,60.1,29.69,West,267,2.0,3.0,57,0.00,,,0.00,Wunderground v.1.15,2017-04-25 20:20:00,
2017-04-25 16:25:00,76.0,60.6,29.69,NE,54,0.0,6.0,59,0.00,,,0.00,Wunderground v.1.15,2017-04-25 20:25:00,
2017-04-25 16:30:00,76.5,61.1,29.69,SSE,150,3.0,3.0,59,0.00,,,0.00,Wunderground v.1.15,2017-04-25 20:30:00,
2017-04-25 16:35:00,77.5,61.6,29.69,SW,218,6.0,6.0,58,0.00,,,0.00,Wunderground v.1.15,2017-04-25 20:35:00,
2017-04-25 16:40:00,77.6,60.7,29.68,WSW,244,1.0,3.0,56,0.00,,,0.00,Wunderground v.1.15,2017-04-25 20:40:00,
2017-04-25 16:45:00,78.0,61.0,29.68,South,177,3.0,6.0,56,0.00,,,0.00,Wunderground v.1.15,2017-04-25 20:45:00,
2017-04-25 16:50:00,78.2,61.7,29.68,SSW,196,2.0,3.0,57,0.00,,,0.00,Wunderground v.1.15,2017-04-25 20:50:00,
2017-04-25 16:55:00,78.5,60.5,29.68,SSW,211,3.0,5.0,54,0.00,,,0.00,Wunderground v.1.15,2017-04-25 20:55:00,
2017-04-25 17:00:00,78.4,61.4,29.68,WSW,238,3.0,4.0,56,0.00,,,0.00,Wunderground v.1.15,2017-04-25 21:00:00,
2017-04-25 17:05:00,78.4,61.9,29.68,West,271,2.0,8.0,57,0.00,,,0.00,Wunderground v.1.15,2017-04-25 21:05:00,
2017-04-25 17:10:00,78.5,61.5,29.67,SW,214,2.0,4.0,56,0.00,,,0.00,Wunderground v.1.15,2017-04-25 21:10:00,
2017-04-25 17:15:00,77.3,59.9,29.67,SSE,155,2.0,6.0,55,0.00,,,0.00,Wunderground v.1.15,2017-04-25 21:15:00,
2017-04-25 17:20:00,77.0,60.6,29.67,SW,221,3.0,4.0,57,0.00,,,0.00,Wunderground v.1.15,2017-04-25 21:20:00,
2017-04-25 17:25:00,77.0,60.6,29.67,SE,146,5.0,5.0,57,0.00,,,0.00,Wunderground v.1.15,2017-04-25 21:25:00,
2017-04-25 17:30:00,76.3,59.9,29.67,SSE,151,2.0,2.0,57,0.00,,,0.00,Wunderground v.1.15,2017-04-25 21:30:00,
2017-04-25 17:35:00,76.2,60.8,29.67,SSW,207,1.0,4.0,59,0.00,,,0.00,Wunderground v.1.15,2017-04-25 21:35:00,
2017-04-25 17:40:00,76.6,60.7,29.67,ESE,109,2.0,2.0,58,0.00,,,0.00,Wunderground v.1.15,2017-04-25 21:40:00,
2017-04-25 17:45:00,77.0,60.6,29.67,SSW,199,4.0,6.0,57,0.00,,,0.00,Wunderground v.1.15,2017-04-25 21:45:00,
2017-04-25 17:50:00,77.1,60.7,29.67,SSE,167,1.0,2.0,57,0.00,,,0.00,Wunderground v.1.15,2017-04-25 21:50:00,
2017-04-25 17:55:00,77.7,61.3,29.67,ESE,103,1.0,7.0,57,0.00,,,0.00,Wunderground v.1.15,2017-04-25 21:55:00,
2017-04-25 17:56:00,77.8,60.8,29.67,NE,40,3.0,7.0,56,0.00,,,0.00,Wunderground v.1.15,2017-04-25 21:56:00,
2017-04-25 18:01:00,78.2,61.2,29.67,East,83,2.0,2.0,56,0.00,,,0.00,Wunderground v.1.15,2017-04-25 22:01:00,
2017-04-25 18:06:00,78.6,60.6,29.67,SW,234,3.0,3.0,54,0.00,,,0.00,Wunderground v.1.15,2017-04-25 22:06:00,
2017-04-25 18:12:00,78.0,60.5,29.67,WSW,250,2.0,6.0,55,0.00,,,0.00,Wunderground v.1.15,2017-04-25 22:12:00,
2017-04-25 18:17:00,77.5,60.6,29.67,South,187,0.0,7.0,56,0.00,,,0.00,Wunderground v.1.15,2017-04-25 22:17:00,
2017-04-25 18:22:00,77.8,60.8,29.67,South,190,1.0,4.0,56,0.00,,,0.00,Wunderground v.1.15,2017-04-25 22:22:00,
2017-04-25 18:27:00,78.3,60.8,29.67,SE,145,1.0,5.0,55,0.00,,,0.00,Wunderground v.1.15,2017-04-25 22:27:00,
2017-04-25 18:32:00,78.3,60.3,29.67,SE,131,7.0,7.0,54,0.00,,,0.00,Wunderground v.1.15,2017-04-25 22:32:00,
2017-04-25 18:37:00,77.6,60.7,29.67,WSW,246,1.0,7.0,56,0.00,,,0.00,Wunderground v.1.15,2017-04-25 22:37:00,
2017-04-25 18:42:00,77.8,60.8,29.67,SE,130,2.0,9.0,56,0.00,,,0.00,Wunderground v.1.15,2017-04-25 22:42:00,
2017-04-25 18:47:00,78.0,60.5,29.67,SSE,160,3.0,9.0,55,0.00,,,0.00,Wunderground v.1.15,2017-04-25 22:47:00,
2017-04-25 18:52:00,77.6,60.2,29.66,South,173,5.0,7.0,55,0.00,,,0.00,Wunderground v.1.15,2017-04-25 22:52:00,
2017-04-25 18:57:00,77.3,60.4,29.67,West,267,2.0,7.0,56,0.00,,,0.00,Wunderground v.1.15,2017-04-25 22:57:00,
2017-04-25 19:02:00,77.3,60.4,29.67,SSW,200,2.0,4.0,56,0.00,,,0.00,Wunderground v.1.15,2017-04-25 23:02:00,
2017-04-25 19:07:00,77.7,61.3,29.66,ENE,67,1.0,4.0,57,0.00,,,0.00,Wunderground v.1.15,2017-04-25 23:07:00,
2017-04-25 19:12:00,77.7,60.8,29.66,ESE,119,0.0,3.0,56,0.00,,,0.00,Wunderground v.1.15,2017-04-25 23:12:00,
2017-04-25 19:17:00,77.8,60.3,29.66,SSW,202,1.0,6.0,55,0.00,,,0.00,Wunderground v.1.15,2017-04-25 23:17:00,
2017-04-25 19:22:00,77.8,60.8,29.66,South,173,3.0,4.0,56,0.00,,,0.00,Wunderground v.1.15,2017-04-25 23:22:00,
2017-04-25 19:27:00,77.4,60.5,29.66,SSE,155,2.0,4.0,56,0.00,,,0.00,Wunderground v.1.15,2017-04-25 23:27:00,
2017-04-25 19:32:00,77.3,60.4,29.66,ENE,69,1.0,3.0,56,0.00,,,0.00,Wunderground v.1.15,2017-04-25 23:32:00,
2017-04-25 19:37:00,77.3,60.4,29.66,SSE,156,0.0,3.0,56,0.00,,,0.00,Wunderground v.1.15,2017-04-25 23:37:00,
2017-04-25 19:43:00,76.9,60.5,29.66,ESE,123,1.0,2.0,57,0.00,,,0.00,Wunderground v.1.15,2017-04-25 23:43:00,
2017-04-25 19:45:00,76.7,60.3,29.66,ESE,123,1.0,2.0,57,0.00,,,0.00,Wunderground v.1.15,2017-04-25 23:45:00,
2017-04-25 19:50:00,76.1,60.2,29.66,ESE,103,0.0,1.0,58,0.00,,,0.00,Wunderground v.1.15,2017-04-25 23:50:00,
2017-04-25 19:55:00,75.6,60.3,29.66,East,89,1.0,5.0,59,0.00,,,0.00,Wunderground v.1.15,2017-04-25 23:55:00,
2017-04-25 20:00:00,75.2,60.4,29.66,ESE,121,0.0,1.0,60,0.00,,,0.00,Wunderground v.1.15,2017-04-26 00:00:00,
2017-04-25 20:05:00,74.8,60.4,29.65,ESE,121,0.0,1.0,61,0.00,,,0.00,Wunderground v.1.15,2017-04-26 00:05:00,
2017-04-25 20:10:00,74.5,60.6,29.65,ESE,121,0.0,0.0,62,0.00,,,0.00,Wunderground v.1.15,2017-04-26 00:10:00,
2017-04-25 20:15:00,74.0,60.6,29.65,ESE,121,0.0,1.0,63,0.00,,,0.00,Wunderground v.1.15,2017-04-26 00:15:00,